LVS073 SAZO-SAEM

Flight info

Callsign LVS073
Flight time 0h 28m
Altitude 2000
Route DCT SAEM
Aircraft BR23/L-SFG/S

Departure

Time 2026-05-05 17:36
Airport Necochea Airport (SAZO)

Arrival

Time 2026-05-05 18:04
Airport Miramar Airport (SAEM)
Time Latitude Longitude Altitude Speed Heading
2026-05-05 17:35 -38.54605 -58.69779 1008 ft 103 kts 114°
2026-05-05 17:36 -38.54889 -58.68933 1005 ft 103 kts 114°
2026-05-05 17:36 -38.55200 -58.68118 988 ft 104 kts 120°
2026-05-05 17:36 -38.55562 -58.67330 994 ft 102 kts 121°
2026-05-05 17:36 -38.55899 -58.66529 1000 ft 102 kts 118°
2026-05-05 17:37 -38.56184 -58.65697 997 ft 103 kts 103°
2026-05-05 17:37 -38.56322 -58.64800 1000 ft 103 kts 97°
2026-05-05 17:37 -38.56393 -58.63881 1006 ft 105 kts 96°
2026-05-05 17:37 -38.56461 -58.62954 1005 ft 104 kts 96°
2026-05-05 17:38 -38.56531 -58.62035 1008 ft 103 kts 95°
2026-05-05 17:38 -38.56492 -58.61133 1008 ft 102 kts 81°
2026-05-05 17:38 -38.56401 -58.60233 1005 ft 102 kts 82°
2026-05-05 17:38 -38.56285 -58.59334 1007 ft 103 kts 79°
2026-05-05 17:39 -38.56160 -58.58449 1007 ft 103 kts 79°
2026-05-05 17:39 -38.56031 -58.57553 1007 ft 102 kts 79°
2026-05-05 17:39 -38.55899 -58.56661 1006 ft 102 kts 78°
2026-05-05 17:39 -38.55757 -58.55773 1003 ft 102 kts 78°
2026-05-05 17:40 -38.55617 -58.54880 1004 ft 102 kts 78°
2026-05-05 17:40 -38.55475 -58.53991 1002 ft 102 kts 78°
2026-05-05 17:40 -38.55336 -58.53102 1003 ft 102 kts 78°
2026-05-05 17:40 -38.55196 -58.52213 1002 ft 102 kts 78°
2026-05-05 17:41 -38.55055 -58.51322 1006 ft 103 kts 78°
2026-05-05 17:41 -38.54916 -58.50438 1006 ft 103 kts 78°
2026-05-05 17:41 -38.54729 -58.49556 1007 ft 103 kts 72°
2026-05-05 17:41 -38.54505 -58.48687 1005 ft 103 kts 69°
2026-05-05 17:42 -38.54202 -58.47864 1005 ft 102 kts 54°
2026-05-05 17:42 -38.53790 -58.47129 1007 ft 102 kts 55°
2026-05-05 17:42 -38.53391 -58.46374 1006 ft 102 kts 55°
2026-05-05 17:42 -38.52998 -58.45620 1006 ft 102 kts 56°
2026-05-05 17:43 -38.52608 -58.44867 1008 ft 102 kts 56°
2026-05-05 17:43 -38.52218 -58.44111 1007 ft 102 kts 56°
2026-05-05 17:43 -38.51830 -58.43357 1005 ft 102 kts 56°
2026-05-05 17:43 -38.51442 -58.42602 1005 ft 102 kts 56°
2026-05-05 17:44 -38.51058 -58.41853 1002 ft 102 kts 56°
2026-05-05 17:44 -38.50668 -58.41095 1004 ft 102 kts 56°
2026-05-05 17:44 -38.50278 -58.40335 1009 ft 103 kts 56°
2026-05-05 17:44 -38.49885 -58.39572 1010 ft 103 kts 56°
2026-05-05 17:45 -38.49491 -58.38806 1012 ft 103 kts 56°
2026-05-05 17:45 -38.49096 -58.38037 1012 ft 103 kts 56°
2026-05-05 17:45 -38.48702 -58.37271 1013 ft 104 kts 56°
2026-05-05 17:45 -38.48308 -58.36503 1016 ft 103 kts 56°
2026-05-05 17:46 -38.47914 -58.35738 1014 ft 103 kts 56°
2026-05-05 17:46 -38.47524 -58.34977 1017 ft 103 kts 56°
2026-05-05 17:46 -38.47125 -58.34207 1015 ft 104 kts 56°
2026-05-05 17:46 -38.46729 -58.33435 1017 ft 104 kts 56°
2026-05-05 17:47 -38.46333 -58.32667 1015 ft 105 kts 56°
2026-05-05 17:47 -38.45934 -58.31895 1010 ft 103 kts 56°
2026-05-05 17:47 -38.45542 -58.31131 1008 ft 102 kts 55°
2026-05-05 17:47 -38.45150 -58.30368 1011 ft 103 kts 56°
2026-05-05 17:48 -38.44756 -58.29602 1010 ft 103 kts 56°
2026-05-05 17:48 -38.44363 -58.28841 1007 ft 103 kts 56°
2026-05-05 17:48 -38.43971 -58.28080 1008 ft 103 kts 56°
2026-05-05 17:48 -38.43576 -58.27316 1009 ft 102 kts 56°
2026-05-05 17:49 -38.43187 -58.26561 1005 ft 101 kts 56°
2026-05-05 17:49 -38.42796 -58.25804 1003 ft 103 kts 56°
2026-05-05 17:49 -38.42402 -58.25040 1003 ft 103 kts 56°
2026-05-05 17:49 -38.42007 -58.24276 1003 ft 103 kts 56°
2026-05-05 17:50 -38.41619 -58.23524 1003 ft 103 kts 56°
2026-05-05 17:50 -38.41226 -58.22763 1007 ft 102 kts 56°
2026-05-05 17:50 -38.40837 -58.22009 1002 ft 102 kts 56°
2026-05-05 17:50 -38.40444 -58.21248 1000 ft 102 kts 56°
2026-05-05 17:51 -38.40051 -58.20489 999 ft 103 kts 56°
2026-05-05 17:51 -38.39659 -58.19732 1000 ft 102 kts 56°
2026-05-05 17:51 -38.39268 -58.18975 999 ft 102 kts 56°
2026-05-05 17:51 -38.38876 -58.18216 1004 ft 103 kts 56°
2026-05-05 17:52 -38.38480 -58.17451 1006 ft 103 kts 56°
2026-05-05 17:52 -38.38083 -58.16683 1006 ft 104 kts 56°
2026-05-05 17:52 -38.37685 -58.15916 1007 ft 103 kts 56°
2026-05-05 17:52 -38.37297 -58.15166 1003 ft 103 kts 56°
2026-05-05 17:53 -38.36903 -58.14404 1007 ft 103 kts 56°
2026-05-05 17:53 -38.36507 -58.13641 1005 ft 103 kts 56°
2026-05-05 17:53 -38.36111 -58.12878 1006 ft 103 kts 56°
2026-05-05 17:53 -38.35719 -58.12121 1003 ft 102 kts 56°
2026-05-05 17:54 -38.35326 -58.11362 1002 ft 103 kts 56°
2026-05-05 17:54 -38.34932 -58.10601 1008 ft 103 kts 56°
2026-05-05 17:54 -38.34540 -58.09845 1006 ft 102 kts 56°
2026-05-05 17:54 -38.34148 -58.09089 1005 ft 102 kts 56°
2026-05-05 17:55 -38.33755 -58.08332 1008 ft 103 kts 56°
2026-05-05 17:55 -38.33360 -58.07570 1009 ft 103 kts 56°
2026-05-05 17:55 -38.32966 -58.06813 1010 ft 104 kts 56°
2026-05-05 17:55 -38.32569 -58.06044 1012 ft 103 kts 56°
2026-05-05 17:56 -38.32173 -58.05284 1012 ft 103 kts 56°
2026-05-05 17:56 -38.31779 -58.04527 1017 ft 103 kts 56°
2026-05-05 17:56 -38.31385 -58.03767 1016 ft 103 kts 56°
2026-05-05 17:56 -38.30988 -58.03003 1016 ft 103 kts 56°
2026-05-05 17:57 -38.30590 -58.02237 1014 ft 103 kts 56°
2026-05-05 17:57 -38.30193 -58.01472 1016 ft 103 kts 56°
2026-05-05 17:57 -38.29798 -58.00714 1012 ft 102 kts 56°
2026-05-05 17:57 -38.29404 -57.99956 1014 ft 103 kts 56°
2026-05-05 17:58 -38.29013 -57.99205 1011 ft 103 kts 56°
2026-05-05 17:58 -38.28617 -57.98444 1013 ft 103 kts 56°
2026-05-05 17:58 -38.28220 -57.97681 1011 ft 103 kts 56°
2026-05-05 17:58 -38.27823 -57.96918 1011 ft 103 kts 56°
2026-05-05 17:59 -38.27427 -57.96157 1013 ft 103 kts 56°
2026-05-05 17:59 -38.27030 -57.95396 1010 ft 103 kts 56°
2026-05-05 17:59 -38.26632 -57.94631 1015 ft 104 kts 56°
2026-05-05 17:59 -38.26233 -57.93866 1015 ft 103 kts 56°
2026-05-05 18:00 -38.25835 -57.93102 1015 ft 104 kts 56°
2026-05-05 18:00 -38.25438 -57.92340 1018 ft 104 kts 56°
2026-05-05 18:00 -38.25040 -57.91576 1016 ft 104 kts 56°
2026-05-05 18:00 -38.24776 -57.91070 1015 ft 103 kts 56°
2026-05-05 18:01 -38.24253 -57.90068 1013 ft 101 kts 56°
2026-05-05 18:01 -38.24010 -57.89601 1000 ft 86 kts 57°
2026-05-05 18:01 -38.23715 -57.89005 980 ft 77 kts 58°
2026-05-05 18:01 -38.23494 -57.88410 945 ft 74 kts 88°
2026-05-05 18:02 -38.23581 -57.87766 920 ft 74 kts 100°
2026-05-05 18:02 -38.23635 -57.87096 868 ft 77 kts 89°
2026-05-05 18:02 -38.23500 -57.86437 821 ft 76 kts 59°
2026-05-05 18:02 -38.23198 -57.85916 749 ft 72 kts 49°
2026-05-05 18:03 -38.22898 -57.85400 674 ft 71 kts 57°
2026-05-05 18:03 -38.22621 -57.84879 696 ft 69 kts 34°
2026-05-05 18:03 -38.22181 -57.84875 644 ft 66 kts 313°
2026-05-05 18:03 -38.21902 -57.85339 495 ft 66 kts 303°
2026-05-05 18:04 -38.21938 -57.85849 337 ft 65 kts 231°
2026-05-05 18:04 -38.22241 -57.86238 191 ft 60 kts 226°
2026-05-05 18:04 -38.22538 -57.86597 90 ft 55 kts 222°
2026-05-05 18:04 -38.22770 -57.86872 71 ft 35 kts 222°
2026-05-05 18:05 -38.22892 -57.87041 76 ft 17 kts 258°
2026-05-05 18:05 -38.22796 -57.87104 75 ft 13 kts 327°
2026-05-05 18:05 -38.22788 -57.87169 76 ft 11 kts 268°
2026-05-05 18:05 -38.22790 -57.87240 77 ft 6 kts 269°
2026-05-05 18:06 -38.22791 -57.87278 77 ft 5 kts 265°
2026-05-05 18:06 -38.22791 -57.87314 76 ft 5 kts 270°
2026-05-05 18:06 -38.22792 -57.87360 77 ft 3 kts 264°
2026-05-05 18:06 -38.22794 -57.87377 77 ft 2 kts 242°
2026-05-05 18:07 -38.22802 -57.87387 73 ft 1 kts 235°
2026-05-05 18:07 -38.22800 -57.87397 75 ft 5 kts 330°
2026-05-05 18:07 -38.22795 -57.87398 77 ft 2 kts 26°
2026-05-05 18:07 -38.22792 -57.87394 77 ft 0 kts 60°